Impacts METAR Board INFO
IDs:

KLGA - New York/La Guardia, NY, US

Updated at: 1231 UTC 22 Feb 2018
Potential Impact None Slight Moderate High
Time22/00Z 22/01Z 22/02Z 22/03Z 22/04Z 22/05Z 22/06Z 22/07Z 22/08Z 22/09Z 22/10Z 22/11Z 22/12Z
VIS10 10 10 10 10 10 10 10 10 10
CIG-- 39 39 43 45 47 50 50 50 49
CoverCLROVCOVCOVCOVCOVCOVCOVCOVCOVC
FltCatVFRVFRVFRVFRVFRVFRVFRVFRVFRVFR
WX-------RA------------
WDir2103603603503603403503503030
WSpd8 7 8 9 12 11 9 8 12 9
WGst-- -- 18 -- -- -- -- -- -- --
Raw hourly METARs
KLGA 212351Z 21008KT 10SM CLR 23/15 A3024 RMK AO2 SLP239 T02330150 10261 20233 53017 $



KLGA 220351Z 36007KT 10SM OVC039 15/09 A3037 RMK AO2 SLP284 T01500094 $
KLGA 220451Z 36008G18KT 10SM OVC039 14/08 A3039 RMK AO2 SLP291 T01440078 402610100 $
KLGA 220551Z 35009KT 10SM -RA OVC043 14/07 A3042 RMK AO2 RAB42 SLP301 P0000 60002 T01390067 10233 20133 53022 $
KLGA 220651Z 36012KT 10SM OVC045 13/01 A3044 RMK AO2 RAE17 SLP308 P0000 T01330006 $
KLGA 220751Z 34011KT 10SM OVC047 12/01 A3048 RMK AO2 SLP320 T01170006 $
KLGA 220851Z 35009KT 10SM OVC050 11/02 A3050 RMK AO2 SLP326 60000 T01060022 51025 $
KLGA 220951Z 35008KT 10SM OVC050 09/02 A3053 RMK AO2 RAB30E43 SLP339 P0000 T00940022 $
KLGA 221051Z 03012KT 10SM OVC050 08/02 A3055 RMK AO2 SLP343 T00780017 $
KLGA 221151Z 03009KT 10SM OVC049 08/02 A3055 RMK AO2 SLP344 60000 70002 T00780022 10139 20072 51018 $